Aviation Digital Data Service (ADDS)

Output produced by METARs form (1120 UTC 26 May 2017)
found at http://bcaws.aviationweather.gov/adds/metars/
 
METAR text: KMOD 261053Z AUTO 35007KT 10SM CLR 13/09 A2985 RMK AO2 SLP109 T01330094
Conditions at: KMOD (MODESTO , CA, US) observed 1053 UTC 26 May 2017
Temperature: 13.3°C (56°F)
Dewpoint: 9.4°C (49°F) [RH = 77%]
Pressure (altimeter): 29.85 inches Hg (1010.9 mb)
[Sea-level pressure: 1010.9 mb]
Winds: from the N (350 degrees) at 8 MPH (7 knots; 3.6 m/s)
Visibility: 10 or more miles (16+ km)
Ceiling: at least 12,000 feet AGL
Clouds: sky clear below 12,000 feet AGL
Weather: automated observation with no human augmentation;
there may or may not be significant weather present at this time